sensor_id;sensor_type;location;lat;lon;timestamp;P1;durP1;ratioP1;P2;durP2;ratioP2
21122;SDS011;10719;48.130;11.630;2023-07-29T00:01:00;5.80;;;2.35;;
21122;SDS011;10719;48.130;11.630;2023-07-29T00:03:26;8.55;;;2.42;;
21122;SDS011;10719;48.130;11.630;2023-07-29T00:05:51;5.82;;;2.33;;
21122;SDS011;10719;48.130;11.630;2023-07-29T00:08:17;4.97;;;2.03;;
21122;SDS011;10719;48.130;11.630;2023-07-29T00:10:43;5.15;;;2.08;;
21122;SDS011;10719;48.130;11.630;2023-07-29T00:13:08;4.90;;;2.13;;
21122;SDS011;10719;48.130;11.630;2023-07-29T00:15:34;6.55;;;2.40;;
21122;SDS011;10719;48.130;11.630;2023-07-29T00:18:00;8.27;;;2.35;;
21122;SDS011;10719;48.130;11.630;2023-07-29T00:20:25;4.20;;;1.83;;
21122;SDS011;10719;48.130;11.630;2023-07-29T00:22:51;7.65;;;2.35;;
21122;SDS011;10719;48.130;11.630;2023-07-29T00:25:20;5.22;;;2.00;;
21122;SDS011;10719;48.130;11.630;2023-07-29T00:27:46;5.68;;;2.15;;
21122;SDS011;10719;48.130;11.630;2023-07-29T00:30:12;7.13;;;2.55;;
21122;SDS011;10719;48.130;11.630;2023-07-29T00:32:38;5.40;;;2.05;;
21122;SDS011;10719;48.130;11.630;2023-07-29T00:35:03;6.72;;;2.30;;
21122;SDS011;10719;48.130;11.630;2023-07-29T00:37:29;7.45;;;2.10;;
21122;SDS011;10719;48.130;11.630;2023-07-29T00:39:55;5.38;;;2.00;;
21122;SDS011;10719;48.130;11.630;2023-07-29T00:42:21;4.47;;;2.00;;
21122;SDS011;10719;48.130;11.630;2023-07-29T00:44:47;7.07;;;2.60;;
21122;SDS011;10719;48.130;11.630;2023-07-29T00:47:12;5.72;;;2.10;;
21122;SDS011;10719;48.130;11.630;2023-07-29T00:49:40;3.60;;;1.70;;
21122;SDS011;10719;48.130;11.630;2023-07-29T00:52:08;5.45;;;2.15;;
21122;SDS011;10719;48.130;11.630;2023-07-29T00:54:36;4.82;;;2.03;;
21122;SDS011;10719;48.130;11.630;2023-07-29T00:57:01;5.97;;;1.85;;
21122;SDS011;10719;48.130;11.630;2023-07-29T00:59:28;4.57;;;1.83;;
21122;SDS011;10719;48.130;11.630;2023-07-29T01:01:55;8.25;;;2.22;;
21122;SDS011;10719;48.130;11.630;2023-07-29T01:04:21;4.63;;;1.73;;
21122;SDS011;10719;48.130;11.630;2023-07-29T01:09:31;5.90;;;2.20;;
21122;SDS011;10719;48.130;11.630;2023-07-29T01:12:08;5.22;;;1.85;;
21122;SDS011;10719;48.130;11.630;2023-07-29T01:14:56;6.00;;;2.00;;
21122;SDS011;10719;48.130;11.630;2023-07-29T01:17:26;6.05;;;2.17;;
21122;SDS011;10719;48.130;11.630;2023-07-29T01:20:04;6.15;;;2.20;;
21122;SDS011;10719;48.130;11.630;2023-07-29T01:22:33;3.92;;;1.80;;
21122;SDS011;10719;48.130;11.630;2023-07-29T01:24:59;7.78;;;2.03;;
21122;SDS011;10719;48.130;11.630;2023-07-29T01:27:26;5.72;;;1.95;;
21122;SDS011;10719;48.130;11.630;2023-07-29T01:29:52;5.57;;;1.73;;
21122;SDS011;10719;48.130;11.630;2023-07-29T01:32:31;5.57;;;2.10;;
21122;SDS011;10719;48.130;11.630;2023-07-29T01:35:21;4.30;;;1.98;;
21122;SDS011;10719;48.130;11.630;2023-07-29T01:37:51;6.53;;;2.08;;
21122;SDS011;10719;48.130;11.630;2023-07-29T01:40:19;6.68;;;1.90;;
21122;SDS011;10719;48.130;11.630;2023-07-29T01:42:48;4.68;;;1.98;;
21122;SDS011;10719;48.130;11.630;2023-07-29T01:45:14;5.90;;;1.98;;
21122;SDS011;10719;48.130;11.630;2023-07-29T01:47:40;5.45;;;2.08;;
21122;SDS011;10719;48.130;11.630;2023-07-29T01:50:06;8.32;;;2.38;;
21122;SDS011;10719;48.130;11.630;2023-07-29T01:52:33;6.10;;;2.05;;
21122;SDS011;10719;48.130;11.630;2023-07-29T01:54:59;5.57;;;1.98;;
21122;SDS011;10719;48.130;11.630;2023-07-29T01:57:25;8.52;;;2.58;;
21122;SDS011;10719;48.130;11.630;2023-07-29T01:59:51;8.13;;;2.00;;
21122;SDS011;10719;48.130;11.630;2023-07-29T02:02:16;4.35;;;2.00;;
21122;SDS011;10719;48.130;11.630;2023-07-29T02:04:42;5.53;;;2.30;;
21122;SDS011;10719;48.130;11.630;2023-07-29T02:07:07;6.05;;;2.15;;
21122;SDS011;10719;48.130;11.630;2023-07-29T02:09:33;7.05;;;2.17;;
21122;SDS011;10719;48.130;11.630;2023-07-29T02:11:59;5.38;;;2.10;;
21122;SDS011;10719;48.130;11.630;2023-07-29T02:14:24;5.30;;;2.00;;
21122;SDS011;10719;48.130;11.630;2023-07-29T02:16:50;6.57;;;2.42;;
21122;SDS011;10719;48.130;11.630;2023-07-29T02:19:15;5.30;;;2.20;;
21122;SDS011;10719;48.130;11.630;2023-07-29T02:21:41;6.55;;;2.65;;
21122;SDS011;10719;48.130;11.630;2023-07-29T02:24:07;8.73;;;2.38;;
21122;SDS011;10719;48.130;11.630;2023-07-29T02:26:32;7.38;;;2.38;;
21122;SDS011;10719;48.130;11.630;2023-07-29T02:28:58;4.25;;;1.75;;
21122;SDS011;10719;48.130;11.630;2023-07-29T02:31:24;3.88;;;1.80;;
21122;SDS011;10719;48.130;11.630;2023-07-29T02:33:50;5.72;;;2.20;;
21122;SDS011;10719;48.130;11.630;2023-07-29T02:36:16;6.18;;;2.13;;
21122;SDS011;10719;48.130;11.630;2023-07-29T02:38:42;3.78;;;1.70;;
21122;SDS011;10719;48.130;11.630;2023-07-29T02:41:09;5.07;;;2.10;;
21122;SDS011;10719;48.130;11.630;2023-07-29T02:43:37;6.32;;;2.40;;
21122;SDS011;10719;48.130;11.630;2023-07-29T02:46:02;5.60;;;2.22;;
21122;SDS011;10719;48.130;11.630;2023-07-29T02:48:28;5.15;;;1.98;;
21122;SDS011;10719;48.130;11.630;2023-07-29T02:50:54;6.55;;;2.90;;
21122;SDS011;10719;48.130;11.630;2023-07-29T02:53:21;6.80;;;1.90;;
21122;SDS011;10719;48.130;11.630;2023-07-29T02:55:47;5.38;;;2.28;;
21122;SDS011;10719;48.130;11.630;2023-07-29T02:58:13;3.90;;;1.63;;
21122;SDS011;10719;48.130;11.630;2023-07-29T03:00:39;6.15;;;1.80;;
21122;SDS011;10719;48.130;11.630;2023-07-29T03:03:07;5.57;;;1.80;;
21122;SDS011;10719;48.130;11.630;2023-07-29T03:05:33;6.78;;;2.40;;
21122;SDS011;10719;48.130;11.630;2023-07-29T03:07:58;4.43;;;2.13;;
21122;SDS011;10719;48.130;11.630;2023-07-29T03:10:24;6.45;;;2.15;;
21122;SDS011;10719;48.130;11.630;2023-07-29T03:12:50;4.45;;;1.80;;
21122;SDS011;10719;48.130;11.630;2023-07-29T03:15:16;5.30;;;2.10;;
21122;SDS011;10719;48.130;11.630;2023-07-29T03:17:41;8.77;;;2.65;;
21122;SDS011;10719;48.130;11.630;2023-07-29T03:20:07;4.45;;;1.90;;
21122;SDS011;10719;48.130;11.630;2023-07-29T03:22:33;7.68;;;2.00;;
21122;SDS011;10719;48.130;11.630;2023-07-29T03:24:59;8.45;;;2.15;;
21122;SDS011;10719;48.130;11.630;2023-07-29T03:27:24;6.20;;;2.38;;
21122;SDS011;10719;48.130;11.630;2023-07-29T03:29:50;6.45;;;2.15;;
21122;SDS011;10719;48.130;11.630;2023-07-29T03:32:15;5.00;;;1.85;;
21122;SDS011;10719;48.130;11.630;2023-07-29T03:34:41;7.32;;;1.92;;
21122;SDS011;10719;48.130;11.630;2023-07-29T03:37:06;4.05;;;1.90;;
21122;SDS011;10719;48.130;11.630;2023-07-29T03:39:32;4.68;;;1.98;;
21122;SDS011;10719;48.130;11.630;2023-07-29T03:41:58;6.13;;;2.08;;
21122;SDS011;10719;48.130;11.630;2023-07-29T03:44:24;5.63;;;2.47;;
21122;SDS011;10719;48.130;11.630;2023-07-29T03:46:50;6.47;;;2.60;;
21122;SDS011;10719;48.130;11.630;2023-07-29T03:49:16;8.00;;;2.20;;
21122;SDS011;10719;48.130;11.630;2023-07-29T03:51:41;5.90;;;2.42;;
21122;SDS011;10719;48.130;11.630;2023-07-29T03:54:07;4.18;;;1.83;;
21122;SDS011;10719;48.130;11.630;2023-07-29T03:56:32;6.32;;;1.80;;
21122;SDS011;10719;48.130;11.630;2023-07-29T03:59:03;4.65;;;1.83;;
21122;SDS011;10719;48.130;11.630;2023-07-29T04:01:30;5.55;;;1.73;;
21122;SDS011;10719;48.130;11.630;2023-07-29T04:03:55;6.68;;;2.45;;
21122;SDS011;10719;48.130;11.630;2023-07-29T04:06:21;6.10;;;2.10;;
21122;SDS011;10719;48.130;11.630;2023-07-29T04:08:47;4.80;;;2.05;;
21122;SDS011;10719;48.130;11.630;2023-07-29T04:11:13;6.00;;;2.17;;
21122;SDS011;10719;48.130;11.630;2023-07-29T04:13:39;5.35;;;2.08;;
21122;SDS011;10719;48.130;11.630;2023-07-29T04:16:04;4.50;;;1.85;;
21122;SDS011;10719;48.130;11.630;2023-07-29T04:18:30;4.63;;;1.80;;
21122;SDS011;10719;48.130;11.630;2023-07-29T04:20:56;3.33;;;1.65;;
21122;SDS011;10719;48.130;11.630;2023-07-29T04:23:22;6.35;;;2.10;;
21122;SDS011;10719;48.130;11.630;2023-07-29T04:25:47;5.65;;;2.08;;
21122;SDS011;10719;48.130;11.630;2023-07-29T04:28:13;6.45;;;1.95;;
21122;SDS011;10719;48.130;11.630;2023-07-29T04:30:38;5.22;;;1.77;;
21122;SDS011;10719;48.130;11.630;2023-07-29T04:33:04;5.53;;;1.95;;
21122;SDS011;10719;48.130;11.630;2023-07-29T04:35:30;5.28;;;1.88;;
21122;SDS011;10719;48.130;11.630;2023-07-29T04:37:55;5.95;;;2.10;;
21122;SDS011;10719;48.130;11.630;2023-07-29T04:40:21;4.63;;;2.05;;
21122;SDS011;10719;48.130;11.630;2023-07-29T04:42:48;3.75;;;1.60;;
21122;SDS011;10719;48.130;11.630;2023-07-29T04:45:14;4.57;;;1.90;;
21122;SDS011;10719;48.130;11.630;2023-07-29T04:47:41;4.85;;;1.65;;
21122;SDS011;10719;48.130;11.630;2023-07-29T04:50:06;9.60;;;2.17;;
21122;SDS011;10719;48.130;11.630;2023-07-29T04:52:32;8.68;;;1.90;;
21122;SDS011;10719;48.130;11.630;2023-07-29T04:54:58;4.32;;;1.80;;
21122;SDS011;10719;48.130;11.630;2023-07-29T04:57:23;6.47;;;2.08;;
21122;SDS011;10719;48.130;11.630;2023-07-29T04:59:49;5.20;;;1.95;;
21122;SDS011;10719;48.130;11.630;2023-07-29T05:02:15;6.85;;;1.92;;
21122;SDS011;10719;48.130;11.630;2023-07-29T05:04:40;4.80;;;1.60;;
21122;SDS011;10719;48.130;11.630;2023-07-29T05:07:06;4.05;;;1.52;;
21122;SDS011;10719;48.130;11.630;2023-07-29T05:09:31;5.57;;;2.13;;
21122;SDS011;10719;48.130;11.630;2023-07-29T05:11:57;5.50;;;2.13;;
21122;SDS011;10719;48.130;11.630;2023-07-29T05:14:23;3.92;;;1.63;;
21122;SDS011;10719;48.130;11.630;2023-07-29T05:16:48;4.05;;;1.73;;
21122;SDS011;10719;48.130;11.630;2023-07-29T05:19:14;4.07;;;1.80;;
21122;SDS011;10719;48.130;11.630;2023-07-29T05:21:40;6.43;;;1.60;;
21122;SDS011;10719;48.130;11.630;2023-07-29T05:24:05;4.30;;;1.70;;
21122;SDS011;10719;48.130;11.630;2023-07-29T05:26:31;2.75;;;1.50;;
21122;SDS011;10719;48.130;11.630;2023-07-29T05:28:57;2.58;;;1.40;;
21122;SDS011;10719;48.130;11.630;2023-07-29T05:31:23;2.38;;;1.48;;
21122;SDS011;10719;48.130;11.630;2023-07-29T05:33:48;4.90;;;1.77;;
21122;SDS011;10719;48.130;11.630;2023-07-29T05:36:14;4.57;;;2.00;;
21122;SDS011;10719;48.130;11.630;2023-07-29T05:38:40;5.78;;;1.80;;
21122;SDS011;10719;48.130;11.630;2023-07-29T05:41:06;6.45;;;2.05;;
21122;SDS011;10719;48.130;11.630;2023-07-29T05:43:31;3.63;;;1.52;;
21122;SDS011;10719;48.130;11.630;2023-07-29T05:45:57;5.47;;;1.70;;
21122;SDS011;10719;48.130;11.630;2023-07-29T05:48:23;4.55;;;1.63;;
21122;SDS011;10719;48.130;11.630;2023-07-29T05:50:48;3.72;;;1.27;;
21122;SDS011;10719;48.130;11.630;2023-07-29T05:53:15;4.25;;;1.60;;
21122;SDS011;10719;48.130;11.630;2023-07-29T05:55:40;4.03;;;1.60;;
21122;SDS011;10719;48.130;11.630;2023-07-29T05:58:06;5.93;;;1.73;;
21122;SDS011;10719;48.130;11.630;2023-07-29T06:00:31;2.70;;;1.35;;
21122;SDS011;10719;48.130;11.630;2023-07-29T06:02:57;2.75;;;1.38;;
21122;SDS011;10719;48.130;11.630;2023-07-29T06:05:23;2.38;;;1.30;;
21122;SDS011;10719;48.130;11.630;2023-07-29T06:07:48;2.65;;;1.00;;
21122;SDS011;10719;48.130;11.630;2023-07-29T06:10:15;3.92;;;1.42;;
21122;SDS011;10719;48.130;11.630;2023-07-29T06:12:44;4.72;;;1.42;;
21122;SDS011;10719;48.130;11.630;2023-07-29T06:15:10;4.88;;;1.83;;
21122;SDS011;10719;48.130;11.630;2023-07-29T06:17:36;6.45;;;1.80;;
21122;SDS011;10719;48.130;11.630;2023-07-29T06:20:03;4.68;;;1.48;;
21122;SDS011;10719;48.130;11.630;2023-07-29T06:22:29;3.30;;;1.50;;
21122;SDS011;10719;48.130;11.630;2023-07-29T06:24:54;3.92;;;1.73;;
21122;SDS011;10719;48.130;11.630;2023-07-29T06:27:20;6.32;;;1.80;;
21122;SDS011;10719;48.130;11.630;2023-07-29T06:29:45;5.57;;;1.60;;
21122;SDS011;10719;48.130;11.630;2023-07-29T06:32:11;5.40;;;1.42;;
21122;SDS011;10719;48.130;11.630;2023-07-29T06:34:36;5.38;;;1.98;;
21122;SDS011;10719;48.130;11.630;2023-07-29T06:37:02;4.05;;;1.80;;
21122;SDS011;10719;48.130;11.630;2023-07-29T06:39:28;2.13;;;1.23;;
21122;SDS011;10719;48.130;11.630;2023-07-29T06:41:53;3.47;;;1.50;;
21122;SDS011;10719;48.130;11.630;2023-07-29T06:44:19;5.25;;;1.70;;
21122;SDS011;10719;48.130;11.630;2023-07-29T06:46:44;3.30;;;1.48;;
21122;SDS011;10719;48.130;11.630;2023-07-29T06:49:10;3.50;;;1.40;;
21122;SDS011;10719;48.130;11.630;2023-07-29T06:51:35;4.38;;;1.83;;
21122;SDS011;10719;48.130;11.630;2023-07-29T06:54:01;4.40;;;1.75;;
21122;SDS011;10719;48.130;11.630;2023-07-29T06:56:27;3.58;;;1.30;;
21122;SDS011;10719;48.130;11.630;2023-07-29T06:58:53;3.75;;;1.40;;
21122;SDS011;10719;48.130;11.630;2023-07-29T07:01:19;5.03;;;1.80;;
21122;SDS011;10719;48.130;11.630;2023-07-29T07:03:44;6.65;;;2.13;;
21122;SDS011;10719;48.130;11.630;2023-07-29T07:06:10;4.70;;;1.90;;
21122;SDS011;10719;48.130;11.630;2023-07-29T07:08:35;5.75;;;2.00;;
21122;SDS011;10719;48.130;11.630;2023-07-29T07:11:01;2.38;;;1.42;;
21122;SDS011;10719;48.130;11.630;2023-07-29T07:13:26;3.75;;;1.60;;
21122;SDS011;10719;48.130;11.630;2023-07-29T07:15:55;3.72;;;1.75;;
21122;SDS011;10719;48.130;11.630;2023-07-29T07:18:21;5.38;;;1.65;;
21122;SDS011;10719;48.130;11.630;2023-07-29T07:20:48;5.30;;;1.73;;
21122;SDS011;10719;48.130;11.630;2023-07-29T07:23:14;3.35;;;1.75;;
21122;SDS011;10719;48.130;11.630;2023-07-29T07:25:40;5.32;;;2.00;;
21122;SDS011;10719;48.130;11.630;2023-07-29T07:28:07;6.28;;;2.40;;
21122;SDS011;10719;48.130;11.630;2023-07-29T07:30:34;6.88;;;1.80;;
21122;SDS011;10719;48.130;11.630;2023-07-29T07:32:59;5.82;;;2.10;;
21122;SDS011;10719;48.130;11.630;2023-07-29T07:35:25;6.90;;;2.42;;
21122;SDS011;10719;48.130;11.630;2023-07-29T07:37:51;4.35;;;2.03;;
21122;SDS011;10719;48.130;11.630;2023-07-29T07:40:16;9.10;;;2.25;;
21122;SDS011;10719;48.130;11.630;2023-07-29T07:42:42;5.90;;;2.22;;
21122;SDS011;10719;48.130;11.630;2023-07-29T07:45:07;3.85;;;2.03;;
21122;SDS011;10719;48.130;11.630;2023-07-29T07:47:33;3.97;;;1.77;;
21122;SDS011;10719;48.130;11.630;2023-07-29T07:49:59;6.25;;;2.70;;
21122;SDS011;10719;48.130;11.630;2023-07-29T07:52:24;6.50;;;2.28;;
21122;SDS011;10719;48.130;11.630;2023-07-29T07:54:53;9.82;;;2.58;;
21122;SDS011;10719;48.130;11.630;2023-07-29T07:57:20;4.70;;;1.90;;
21122;SDS011;10719;48.130;11.630;2023-07-29T07:59:46;4.95;;;1.98;;
21122;SDS011;10719;48.130;11.630;2023-07-29T08:02:12;7.95;;;2.05;;
21122;SDS011;10719;48.130;11.630;2023-07-29T08:04:38;5.10;;;1.60;;
21122;SDS011;10719;48.130;11.630;2023-07-29T08:07:03;5.38;;;2.03;;
21122;SDS011;10719;48.130;11.630;2023-07-29T08:09:29;5.22;;;2.15;;
21122;SDS011;10719;48.130;11.630;2023-07-29T08:11:55;4.93;;;2.15;;
21122;SDS011;10719;48.130;11.630;2023-07-29T08:14:20;6.03;;;2.15;;
21122;SDS011;10719;48.130;11.630;2023-07-29T08:16:46;6.10;;;2.20;;
21122;SDS011;10719;48.130;11.630;2023-07-29T08:19:12;7.20;;;2.78;;
21122;SDS011;10719;48.130;11.630;2023-07-29T08:21:37;4.68;;;2.08;;
21122;SDS011;10719;48.130;11.630;2023-07-29T08:24:03;4.00;;;1.77;;
21122;SDS011;10719;48.130;11.630;2023-07-29T08:26:29;6.00;;;2.10;;
21122;SDS011;10719;48.130;11.630;2023-07-29T08:28:54;4.15;;;1.75;;
21122;SDS011;10719;48.130;11.630;2023-07-29T08:31:20;5.30;;;2.10;;
21122;SDS011;10719;48.130;11.630;2023-07-29T08:33:45;6.03;;;2.20;;
21122;SDS011;10719;48.130;11.630;2023-07-29T08:36:11;5.03;;;2.33;;
21122;SDS011;10719;48.130;11.630;2023-07-29T08:38:36;6.95;;;2.47;;
21122;SDS011;10719;48.130;11.630;2023-07-29T08:41:16;7.82;;;2.20;;
21122;SDS011;10719;48.130;11.630;2023-07-29T08:44:06;6.15;;;1.73;;
21122;SDS011;10719;48.130;11.630;2023-07-29T08:46:50;4.60;;;1.73;;
21122;SDS011;10719;48.130;11.630;2023-07-29T08:49:17;7.40;;;2.40;;
21122;SDS011;10719;48.130;11.630;2023-07-29T08:51:48;8.75;;;2.67;;
21122;SDS011;10719;48.130;11.630;2023-07-29T08:54:14;6.50;;;1.60;;
21122;SDS011;10719;48.130;11.630;2023-07-29T08:56:40;5.68;;;2.10;;
21122;SDS011;10719;48.130;11.630;2023-07-29T08:59:07;5.85;;;2.20;;
21122;SDS011;10719;48.130;11.630;2023-07-29T09:01:33;7.45;;;2.30;;
21122;SDS011;10719;48.130;11.630;2023-07-29T09:03:59;5.10;;;2.15;;
21122;SDS011;10719;48.130;11.630;2023-07-29T09:06:25;3.92;;;1.70;;
21122;SDS011;10719;48.130;11.630;2023-07-29T09:08:52;5.65;;;2.25;;
21122;SDS011;10719;48.130;11.630;2023-07-29T09:11:19;5.93;;;1.98;;
21122;SDS011;10719;48.130;11.630;2023-07-29T09:13:45;5.18;;;2.15;;
21122;SDS011;10719;48.130;11.630;2023-07-29T09:16:11;4.28;;;1.63;;
21122;SDS011;10719;48.130;11.630;2023-07-29T09:18:37;6.32;;;2.05;;
21122;SDS011;10719;48.130;11.630;2023-07-29T09:21:03;6.90;;;2.15;;
21122;SDS011;10719;48.130;11.630;2023-07-29T09:23:28;5.07;;;2.22;;
21122;SDS011;10719;48.130;11.630;2023-07-29T09:26:07;5.68;;;2.05;;
21122;SDS011;10719;48.130;11.630;2023-07-29T09:28:40;3.58;;;1.60;;
21122;SDS011;10719;48.130;11.630;2023-07-29T09:31:06;5.90;;;2.10;;
21122;SDS011;10719;48.130;11.630;2023-07-29T09:33:35;5.90;;;2.00;;
21122;SDS011;10719;48.130;11.630;2023-07-29T09:36:02;5.25;;;2.35;;
21122;SDS011;10719;48.130;11.630;2023-07-29T09:38:36;3.90;;;1.63;;
21122;SDS011;10719;48.130;11.630;2023-07-29T09:41:02;3.55;;;1.60;;
21122;SDS011;10719;48.130;11.630;2023-07-29T09:43:29;4.53;;;2.03;;
21122;SDS011;10719;48.130;11.630;2023-07-29T09:45:59;4.43;;;1.98;;
21122;SDS011;10719;48.130;11.630;2023-07-29T09:48:26;5.85;;;1.83;;
21122;SDS011;10719;48.130;11.630;2023-07-29T09:50:53;5.95;;;2.05;;
21122;SDS011;10719;48.130;11.630;2023-07-29T09:53:19;5.00;;;2.22;;
21122;SDS011;10719;48.130;11.630;2023-07-29T09:55:46;4.82;;;2.08;;
21122;SDS011;10719;48.130;11.630;2023-07-29T09:58:13;5.22;;;1.90;;
21122;SDS011;10719;48.130;11.630;2023-07-29T10:00:39;5.07;;;2.03;;
21122;SDS011;10719;48.130;11.630;2023-07-29T10:03:06;5.22;;;1.95;;
21122;SDS011;10719;48.130;11.630;2023-07-29T10:05:32;7.30;;;2.53;;
21122;SDS011;10719;48.130;11.630;2023-07-29T10:07:59;4.47;;;2.00;;
21122;SDS011;10719;48.130;11.630;2023-07-29T10:10:26;4.15;;;1.67;;
21122;SDS011;10719;48.130;11.630;2023-07-29T10:12:53;4.78;;;2.00;;
21122;SDS011;10719;48.130;11.630;2023-07-29T10:15:19;5.50;;;2.50;;
21122;SDS011;10719;48.130;11.630;2023-07-29T10:17:46;6.82;;;2.08;;
21122;SDS011;10719;48.130;11.630;2023-07-29T10:20:12;4.68;;;1.80;;
21122;SDS011;10719;48.130;11.630;2023-07-29T10:22:38;6.43;;;1.98;;
21122;SDS011;10719;48.130;11.630;2023-07-29T10:25:18;4.63;;;1.85;;
21122;SDS011;10719;48.130;11.630;2023-07-29T10:27:48;7.40;;;2.40;;
21122;SDS011;10719;48.130;11.630;2023-07-29T10:30:17;4.65;;;1.80;;
21122;SDS011;10719;48.130;11.630;2023-07-29T10:32:43;3.50;;;1.63;;
21122;SDS011;10719;48.130;11.630;2023-07-29T10:35:10;5.63;;;2.15;;
21122;SDS011;10719;48.130;11.630;2023-07-29T10:37:40;3.83;;;1.65;;
21122;SDS011;10719;48.130;11.630;2023-07-29T10:40:07;4.57;;;1.40;;
21122;SDS011;10719;48.130;11.630;2023-07-29T10:42:34;5.65;;;2.08;;
21122;SDS011;10719;48.130;11.630;2023-07-29T10:45:03;3.05;;;1.63;;
21122;SDS011;10719;48.130;11.630;2023-07-29T10:47:43;6.43;;;2.10;;
21122;SDS011;10719;48.130;11.630;2023-07-29T10:50:16;5.73;;;1.97;;
21122;SDS011;10719;48.130;11.630;2023-07-29T10:52:52;3.97;;;1.88;;
21122;SDS011;10719;48.130;11.630;2023-07-29T10:55:25;7.03;;;2.05;;
21122;SDS011;10719;48.130;11.630;2023-07-29T10:58:04;4.18;;;1.80;;
21122;SDS011;10719;48.130;11.630;2023-07-29T11:00:30;6.28;;;2.28;;
21122;SDS011;10719;48.130;11.630;2023-07-29T11:03:02;5.57;;;2.30;;
21122;SDS011;10719;48.130;11.630;2023-07-29T11:05:52;3.28;;;1.73;;
21122;SDS011;10719;48.130;11.630;2023-07-29T11:08:19;5.07;;;1.90;;
21122;SDS011;10719;48.130;11.630;2023-07-29T11:11:05;4.70;;;1.92;;
21122;SDS011;10719;48.130;11.630;2023-07-29T11:13:33;5.63;;;2.22;;
21122;SDS011;10719;48.130;11.630;2023-07-29T11:16:00;7.15;;;2.00;;
21122;SDS011;10719;48.130;11.630;2023-07-29T11:18:30;5.38;;;1.98;;
21122;SDS011;10719;48.130;11.630;2023-07-29T11:20:58;4.78;;;1.85;;
21122;SDS011;10719;48.130;11.630;2023-07-29T11:23:34;4.45;;;2.20;;
21122;SDS011;10719;48.130;11.630;2023-07-29T11:26:02;3.00;;;1.30;;
21122;SDS011;10719;48.130;11.630;2023-07-29T11:28:28;4.20;;;1.23;;
21122;SDS011;10719;48.130;11.630;2023-07-29T11:30:54;4.38;;;1.05;;
21122;SDS011;10719;48.130;11.630;2023-07-29T11:33:21;2.10;;;1.05;;
21122;SDS011;10719;48.130;11.630;2023-07-29T11:35:53;2.45;;;1.25;;
21122;SDS011;10719;48.130;11.630;2023-07-29T11:38:19;3.67;;;1.50;;
21122;SDS011;10719;48.130;11.630;2023-07-29T11:40:59;4.47;;;1.50;;
21122;SDS011;10719;48.130;11.630;2023-07-29T11:43:25;2.40;;;1.20;;
21122;SDS011;10719;48.130;11.630;2023-07-29T11:45:51;2.40;;;1.13;;
21122;SDS011;10719;48.130;11.630;2023-07-29T11:48:17;2.83;;;1.23;;
21122;SDS011;10719;48.130;11.630;2023-07-29T11:50:43;2.58;;;1.30;;
21122;SDS011;10719;48.130;11.630;2023-07-29T11:53:10;3.42;;;1.25;;
21122;SDS011;10719;48.130;11.630;2023-07-29T11:55:37;3.03;;;1.20;;
21122;SDS011;10719;48.130;11.630;2023-07-29T11:58:03;3.67;;;1.25;;
21122;SDS011;10719;48.130;11.630;2023-07-29T12:00:29;3.83;;;1.45;;
21122;SDS011;10719;48.130;11.630;2023-07-29T12:02:56;4.45;;;1.40;;
21122;SDS011;10719;48.130;11.630;2023-07-29T12:05:22;3.40;;;1.35;;
21122;SDS011;10719;48.130;11.630;2023-07-29T12:07:48;3.92;;;1.65;;
21122;SDS011;10719;48.130;11.630;2023-07-29T12:10:14;3.08;;;1.40;;
21122;SDS011;10719;48.130;11.630;2023-07-29T12:12:47;3.63;;;1.25;;
21122;SDS011;10719;48.130;11.630;2023-07-29T12:15:13;4.30;;;1.73;;
21122;SDS011;10719;48.130;11.630;2023-07-29T12:17:47;3.50;;;1.48;;
21122;SDS011;10719;48.130;11.630;2023-07-29T12:20:13;5.57;;;1.70;;
21122;SDS011;10719;48.130;11.630;2023-07-29T12:22:38;6.53;;;1.55;;
21122;SDS011;10719;48.130;11.630;2023-07-29T12:25:05;2.75;;;1.48;;
21122;SDS011;10719;48.130;11.630;2023-07-29T12:27:31;3.67;;;1.58;;
21122;SDS011;10719;48.130;11.630;2023-07-29T12:29:57;3.25;;;1.30;;
21122;SDS011;10719;48.130;11.630;2023-07-29T12:32:24;4.85;;;1.63;;
21122;SDS011;10719;48.130;11.630;2023-07-29T12:34:52;2.50;;;1.38;;
21122;SDS011;10719;48.130;11.630;2023-07-29T12:37:18;3.70;;;1.58;;
21122;SDS011;10719;48.130;11.630;2023-07-29T12:39:44;2.83;;;1.58;;
21122;SDS011;10719;48.130;11.630;2023-07-29T12:42:10;4.60;;;1.65;;
21122;SDS011;10719;48.130;11.630;2023-07-29T12:44:37;5.45;;;1.80;;
21122;SDS011;10719;48.130;11.630;2023-07-29T12:47:04;5.22;;;1.75;;
21122;SDS011;10719;48.130;11.630;2023-07-29T12:49:30;3.58;;;1.48;;
21122;SDS011;10719;48.130;11.630;2023-07-29T12:51:57;6.18;;;2.00;;
21122;SDS011;10719;48.130;11.630;2023-07-29T12:54:24;4.40;;;1.70;;
21122;SDS011;10719;48.130;11.630;2023-07-29T12:56:50;4.72;;;1.60;;
21122;SDS011;10719;48.130;11.630;2023-07-29T12:59:16;4.18;;;2.05;;
21122;SDS011;10719;48.130;11.630;2023-07-29T13:01:41;6.35;;;2.05;;
21122;SDS011;10719;48.130;11.630;2023-07-29T13:04:09;7.07;;;1.90;;
21122;SDS011;10719;48.130;11.630;2023-07-29T13:06:35;4.57;;;1.58;;
21122;SDS011;10719;48.130;11.630;2023-07-29T13:09:01;4.07;;;1.63;;
21122;SDS011;10719;48.130;11.630;2023-07-29T13:11:26;2.83;;;1.58;;
21122;SDS011;10719;48.130;11.630;2023-07-29T13:13:52;3.70;;;1.60;;
21122;SDS011;10719;48.130;11.630;2023-07-29T13:16:17;4.72;;;1.85;;
21122;SDS011;10719;48.130;11.630;2023-07-29T13:18:43;5.10;;;1.95;;
21122;SDS011;10719;48.130;11.630;2023-07-29T13:21:09;5.05;;;1.83;;
21122;SDS011;10719;48.130;11.630;2023-07-29T13:23:35;5.78;;;2.40;;
21122;SDS011;10719;48.130;11.630;2023-07-29T13:26:01;13.18;;;2.90;;
21122;SDS011;10719;48.130;11.630;2023-07-29T13:28:27;8.45;;;2.67;;
21122;SDS011;10719;48.130;11.630;2023-07-29T13:30:52;7.28;;;2.60;;
21122;SDS011;10719;48.130;11.630;2023-07-29T13:33:18;7.88;;;2.50;;
21122;SDS011;10719;48.130;11.630;2023-07-29T13:35:44;10.25;;;3.42;;
21122;SDS011;10719;48.130;11.630;2023-07-29T13:38:09;8.68;;;2.97;;
21122;SDS011;10719;48.130;11.630;2023-07-29T13:40:36;7.55;;;2.47;;
21122;SDS011;10719;48.130;11.630;2023-07-29T13:43:02;6.80;;;2.80;;
21122;SDS011;10719;48.130;11.630;2023-07-29T13:45:27;8.20;;;2.88;;
21122;SDS011;10719;48.130;11.630;2023-07-29T13:47:53;6.85;;;3.17;;
21122;SDS011;10719;48.130;11.630;2023-07-29T13:50:18;11.30;;;3.38;;
21122;SDS011;10719;48.130;11.630;2023-07-29T13:52:44;9.23;;;3.33;;
21122;SDS011;10719;48.130;11.630;2023-07-29T13:55:10;8.20;;;2.95;;
21122;SDS011;10719;48.130;11.630;2023-07-29T13:57:36;7.88;;;3.10;;
21122;SDS011;10719;48.130;11.630;2023-07-29T14:00:04;7.88;;;2.58;;
21122;SDS011;10719;48.130;11.630;2023-07-29T14:02:30;8.30;;;3.00;;
21122;SDS011;10719;48.130;11.630;2023-07-29T14:04:56;6.82;;;2.67;;
21122;SDS011;10719;48.130;11.630;2023-07-29T14:07:22;6.65;;;3.13;;
21122;SDS011;10719;48.130;11.630;2023-07-29T14:09:47;6.28;;;2.80;;
21122;SDS011;10719;48.130;11.630;2023-07-29T14:12:13;8.07;;;2.70;;
21122;SDS011;10719;48.130;11.630;2023-07-29T14:14:40;5.18;;;2.50;;
21122;SDS011;10719;48.130;11.630;2023-07-29T14:17:06;6.80;;;2.95;;
21122;SDS011;10719;48.130;11.630;2023-07-29T14:19:33;9.38;;;3.03;;
21122;SDS011;10719;48.130;11.630;2023-07-29T14:21:59;8.65;;;2.83;;
21122;SDS011;10719;48.130;11.630;2023-07-29T14:24:25;7.32;;;3.08;;
21122;SDS011;10719;48.130;11.630;2023-07-29T14:26:50;9.15;;;3.08;;
21122;SDS011;10719;48.130;11.630;2023-07-29T14:29:16;8.40;;;2.92;;
21122;SDS011;10719;48.130;11.630;2023-07-29T14:31:42;7.10;;;2.60;;
21122;SDS011;10719;48.130;11.630;2023-07-29T14:34:07;6.80;;;3.03;;